Time;durP1;ratioP1;P1;durP2;ratioP2;P2;SDS_P1;SDS_P2;PMS_P1;PMS_P2;Temp;Humidity;BMP_temperature;BMP_pressure;BME280_temperature;BME280_humidity;BME280_pressure;Samples;Min_cycle;Max_cycle;Signal;HPM_P1;HPM_P2
2024/02/25 00:00:31;;;;;;;2.17;1.13;;;7.30;99.90;;;;;;5017674;28;20033;-84
2024/02/25 00:02:56;;;;;;;2.45;1.10;;;7.30;99.90;;;;;;5017381;28;20374;-85
2024/02/25 00:05:22;;;;;;;3.58;1.30;;;7.30;99.90;;;;;;5017662;28;20057;-85
2024/02/25 00:07:48;;;;;;;3.63;1.20;;;7.30;99.90;;;;;;5017446;28;20385;-85
2024/02/25 00:10:13;;;;;;;2.60;1.40;;;7.30;99.90;;;;;;5017393;28;20073;-83
2024/02/25 00:12:39;;;;;;;2.17;0.93;;;7.30;99.90;;;;;;5033971;28;20026;-84
2024/02/25 00:15:05;;;;;;;2.22;1.35;;;7.30;99.90;;;;;;5034368;28;20425;-85
2024/02/25 00:17:31;;;;;;;2.05;1.00;;;7.30;99.90;;;;;;5017528;28;20128;-82
2024/02/25 00:19:56;;;;;;;3.38;1.08;;;7.30;99.90;;;;;;5035628;28;20053;-84
2024/02/25 00:22:24;;;;;;;3.05;1.10;;;7.30;99.90;;;;;;5017922;28;20025;-85
2024/02/25 00:24:49;;;;;;;2.15;1.23;;;7.30;99.90;;;;;;5023627;28;20049;-84
2024/02/25 00:27:16;;;;;;;2.42;1.00;;;7.30;99.90;;;;;;5058378;28;20030;-85
2024/02/25 00:29:41;;;;;;;2.55;0.88;;;7.30;99.90;;;;;;5025922;28;20040;-83
2024/02/25 00:32:07;;;;;;;1.67;0.95;;;7.30;99.90;;;;;;5024837;28;20009;-83
2024/02/25 00:34:33;;;;;;;2.78;1.10;;;7.30;99.90;;;;;;5057476;28;20016;-84
2024/02/25 00:37:01;;;;;;;2.28;0.98;;;7.40;99.90;;;;;;5038036;28;20029;-85
2024/02/25 00:39:28;;;;;;;3.50;1.05;;;7.40;99.90;;;;;;5034446;28;20037;-84
2024/02/25 00:41:56;;;;;;;3.95;1.10;;;7.40;99.90;;;;;;5017567;28;20033;-84
2024/02/25 00:44:21;;;;;;;1.25;0.80;;;7.40;99.90;;;;;;5035065;28;20033;-85
2024/02/25 00:46:47;;;;;;;3.30;1.00;;;7.30;99.90;;;;;;5034846;28;20033;-84
2024/02/25 00:49:13;;;;;;;3.10;1.23;;;7.40;99.90;;;;;;5019744;28;20539;-84
2024/02/25 00:51:42;;;;;;;1.17;0.90;;;7.40;99.90;;;;;;5019908;28;20381;-84
2024/02/25 00:54:07;;;;;;;0.90;0.65;;;7.40;99.90;;;;;;5034173;28;20034;-84
2024/02/25 00:56:33;;;;;;;3.58;1.23;;;7.40;99.90;;;;;;5004114;28;20040;-84
2024/02/25 00:58:59;;;;;;;2.40;0.82;;;7.40;99.90;;;;;;5005456;28;20036;-85
2024/02/25 01:01:24;;;;;;;1.70;0.77;;;7.40;99.90;;;;;;5004776;28;20029;-84
2024/02/25 01:03:50;;;;;;;3.50;0.90;;;7.40;99.90;;;;;;5001033;28;20064;-85
2024/02/25 01:06:16;;;;;;;1.38;1.10;;;7.40;99.90;;;;;;5017243;28;20088;-84
2024/02/25 01:08:42;;;;;;;2.35;1.23;;;7.40;99.90;;;;;;5033324;28;20037;-85
2024/02/25 01:11:10;;;;;;;0.98;0.70;;;7.40;99.90;;;;;;5034790;28;20026;-84
2024/02/25 01:13:36;;;;;;;1.20;0.70;;;7.40;99.90;;;;;;5024337;28;20054;-85
2024/02/25 01:16:03;;;;;;;1.92;1.17;;;7.40;99.90;;;;;;4997149;28;20022;-84
2024/02/25 01:18:35;;;;;;;2.60;1.00;;;7.40;99.90;;;;;;5014605;28;20088;-85
2024/02/25 01:21:01;;;;;;;2.17;0.95;;;7.40;99.90;;;;;;5018235;28;20057;-84
2024/02/25 01:23:27;;;;;;;1.15;0.85;;;7.40;99.90;;;;;;5016702;28;20022;-84
2024/02/25 01:25:52;;;;;;;3.00;1.08;;;7.40;99.90;;;;;;5032617;28;20361;-84
2024/02/25 01:28:19;;;;;;;2.70;1.05;;;7.40;99.90;;;;;;5023574;28;20026;-83
2024/02/25 01:30:47;;;;;;;1.95;0.80;;;7.40;99.90;;;;;;5032296;28;20053;-84
2024/02/25 01:33:16;;;;;;;2.08;0.90;;;7.40;99.90;;;;;;5016757;28;20033;-83
2024/02/25 01:35:45;;;;;;;1.35;0.70;;;7.40;99.90;;;;;;5034472;28;20528;-84
2024/02/25 01:38:11;;;;;;;1.52;0.90;;;7.40;99.90;;;;;;5030041;28;20052;-84
2024/02/25 01:40:36;;;;;;;2.33;1.27;;;7.40;99.90;;;;;;5015808;28;20377;-84
2024/02/25 01:43:09;;;;;;;1.17;0.82;;;7.40;99.90;;;;;;5015978;28;20026;-85
2024/02/25 01:45:35;;;;;;;2.65;0.85;;;7.40;99.90;;;;;;5032346;28;20037;-84
2024/02/25 01:48:03;;;;;;;1.60;1.05;;;7.40;99.90;;;;;;5016392;28;20095;-85
2024/02/25 01:50:29;;;;;;;2.47;0.85;;;7.40;99.90;;;;;;5016464;28;20029;-85
2024/02/25 01:52:56;;;;;;;1.20;0.80;;;7.40;99.90;;;;;;5027894;28;20024;-84
2024/02/25 01:55:25;;;;;;;2.15;1.08;;;7.30;99.90;;;;;;5057627;28;20052;-84
2024/02/25 01:57:54;;;;;;;2.17;0.82;;;7.40;99.90;;;;;;5041395;28;20025;-84
2024/02/25 02:00:22;;;;;;;3.53;1.67;;;7.40;99.90;;;;;;5048203;28;20021;-85
2024/02/25 02:02:48;;;;;;;3.03;1.00;;;7.40;99.90;;;;;;5038738;28;20030;-85
2024/02/25 02:05:13;;;;;;;2.55;0.98;;;7.40;99.90;;;;;;5039314;28;20461;-85
2024/02/25 02:07:40;;;;;;;1.77;1.05;;;7.40;99.90;;;;;;5045040;28;20037;-85
2024/02/25 02:10:08;;;;;;;3.72;1.33;;;7.30;99.90;;;;;;4996142;28;20034;-84
2024/02/25 02:12:41;;;;;;;2.53;1.20;;;7.30;99.90;;;;;;5011719;28;20121;-84
2024/02/25 02:15:08;;;;;;;1.15;0.90;;;7.40;99.90;;;;;;5054178;28;20071;-84
2024/02/25 02:17:34;;;;;;;1.90;1.02;;;7.30;99.90;;;;;;5002997;28;20040;-84
2024/02/25 02:20:33;;;;;;;2.03;0.80;;;7.40;99.90;;;;;;5035307;28;20033;-86
2024/02/25 02:22:58;;;;;;;2.05;1.00;;;7.40;99.90;;;;;;5052622;28;20040;-84
2024/02/25 02:25:24;;;;;;;1.20;0.98;;;7.40;99.90;;;;;;5036714;28;20110;-85
2024/02/25 02:27:50;;;;;;;2.17;1.10;;;7.50;99.90;;;;;;5019864;28;20036;-85
2024/02/25 02:30:15;;;;;;;1.10;0.98;;;7.50;99.90;;;;;;5053440;28;20488;-84
2024/02/25 02:32:41;;;;;;;2.50;1.20;;;7.50;99.90;;;;;;5053945;28;20036;-84
2024/02/25 02:35:07;;;;;;;1.88;1.05;;;7.50;99.90;;;;;;5052963;28;20044;-84
2024/02/25 02:37:33;;;;;;;3.67;1.27;;;7.50;99.90;;;;;;5052702;28;20103;-85
2024/02/25 02:39:59;;;;;;;2.67;1.10;;;7.50;99.90;;;;;;5052439;28;20380;-84
2024/02/25 02:42:25;;;;;;;1.40;0.95;;;7.50;99.90;;;;;;5036895;28;20159;-85
2024/02/25 02:44:51;;;;;;;3.30;1.17;;;7.50;99.90;;;;;;5057227;28;20029;-85
2024/02/25 02:47:23;;;;;;;2.38;1.00;;;7.50;99.90;;;;;;5039706;28;20028;-85
2024/02/25 02:49:49;;;;;;;2.05;0.90;;;7.50;99.90;;;;;;5039654;28;20025;-84
2024/02/25 02:52:16;;;;;;;1.77;1.10;;;7.50;99.90;;;;;;5023639;28;20036;-84
2024/02/25 02:54:43;;;;;;;1.83;1.00;;;7.60;99.90;;;;;;5056359;28;20420;-85
2024/02/25 02:57:08;;;;;;;3.13;1.20;;;7.60;99.90;;;;;;5055958;28;20044;-84
2024/02/25 02:59:35;;;;;;;1.92;0.90;;;7.60;99.90;;;;;;5056149;28;20457;-85
2024/02/25 03:02:01;;;;;;;2.00;1.08;;;7.60;99.90;;;;;;5056322;28;20036;-83
2024/02/25 03:04:30;;;;;;;1.25;0.90;;;7.60;99.90;;;;;;5022970;28;20029;-85
2024/02/25 03:06:56;;;;;;;1.70;1.08;;;7.60;99.90;;;;;;5039641;28;20043;-84
2024/02/25 03:09:22;;;;;;;2.58;1.05;;;7.60;99.90;;;;;;5057534;28;20124;-84
2024/02/25 03:11:48;;;;;;;2.03;1.27;;;7.60;99.90;;;;;;5022916;28;20037;-85
2024/02/25 03:14:13;;;;;;;1.65;1.05;;;7.60;99.90;;;;;;5023526;28;20102;-85
2024/02/25 03:16:39;;;;;;;1.17;0.93;;;7.60;99.90;;;;;;5040766;28;20098;-84
2024/02/25 03:19:05;;;;;;;1.42;1.15;;;7.60;99.90;;;;;;5021589;28;20029;-84
2024/02/25 03:21:30;;;;;;;1.58;0.85;;;7.60;99.90;;;;;;5063782;28;20021;-84
2024/02/25 03:23:56;;;;;;;1.15;0.80;;;7.60;99.90;;;;;;5046905;28;20020;-84
2024/02/25 03:26:22;;;;;;;1.40;0.80;;;7.60;99.90;;;;;;5047090;28;20024;-84
2024/02/25 03:28:47;;;;;;;2.47;1.10;;;7.60;99.90;;;;;;5030023;28;20096;-84
2024/02/25 03:31:13;;;;;;;1.70;1.00;;;7.60;99.90;;;;;;5024835;28;20029;-85
2024/02/25 03:33:39;;;;;;;1.33;0.95;;;7.60;99.90;;;;;;5022511;28;20029;-85
2024/02/25 03:36:06;;;;;;;2.13;0.95;;;7.60;99.90;;;;;;5055638;28;20017;-84
2024/02/25 03:38:32;;;;;;;1.50;0.85;;;7.60;99.90;;;;;;5039458;28;20082;-84
2024/02/25 03:41:01;;;;;;;1.95;1.00;;;7.60;99.90;;;;;;5022603;28;20048;-85
2024/02/25 03:43:26;;;;;;;0.88;0.73;;;7.60;99.90;;;;;;5038994;28;20378;-85
2024/02/25 03:45:52;;;;;;;1.08;0.85;;;7.60;99.90;;;;;;5006542;28;20025;-85
2024/02/25 03:48:18;;;;;;;0.85;0.73;;;7.60;99.90;;;;;;5038801;28;20032;-85
2024/02/25 03:50:43;;;;;;;0.90;0.80;;;7.70;99.90;;;;;;5022002;28;20536;-84
2024/02/25 03:53:09;;;;;;;1.77;0.80;;;7.70;99.90;;;;;;5038202;28;20131;-84
2024/02/25 03:55:34;;;;;;;1.67;0.70;;;7.70;99.90;;;;;;5021525;28;20469;-85
2024/02/25 03:58:00;;;;;;;2.75;0.82;;;7.70;99.90;;;;;;5021843;28;20499;-85
2024/02/25 04:00:26;;;;;;;1.67;0.60;;;7.70;99.90;;;;;;5021507;28;20021;-85
2024/02/25 04:02:52;;;;;;;1.67;0.82;;;7.70;99.90;;;;;;5038999;28;20033;-85
2024/02/25 04:05:18;;;;;;;0.68;0.68;;;7.70;99.90;;;;;;5057066;28;20052;-85
2024/02/25 04:07:45;;;;;;;1.25;0.93;;;7.70;99.90;;;;;;5063552;28;20028;-85
2024/02/25 04:10:12;;;;;;;1.13;0.90;;;7.70;99.90;;;;;;5062149;28;20033;-83
2024/02/25 04:12:41;;;;;;;0.73;0.70;;;7.70;99.90;;;;;;5042401;28;20067;-86
2024/02/25 04:15:08;;;;;;;0.77;0.50;;;7.60;99.90;;;;;;5026589;28;20021;-84
2024/02/25 04:17:33;;;;;;;1.48;0.65;;;7.60;99.90;;;;;;5041247;28;20123;-86
2024/02/25 04:20:00;;;;;;;0.57;0.57;;;7.60;99.90;;;;;;5039364;28;20017;-84
2024/02/25 04:22:26;;;;;;;0.80;0.70;;;7.60;99.90;;;;;;5055194;28;20472;-83
2024/02/25 04:24:52;;;;;;;0.77;0.70;;;7.60;99.90;;;;;;5039185;28;20106;-84
2024/02/25 04:27:20;;;;;;;0.73;0.70;;;7.60;99.90;;;;;;5011150;28;20037;-85
2024/02/25 04:29:46;;;;;;;1.02;0.73;;;7.60;99.90;;;;;;5059814;28;20025;-84
2024/02/25 04:32:13;;;;;;;0.75;0.60;;;7.60;99.90;;;;;;5055106;28;20039;-84
2024/02/25 04:34:39;;;;;;;2.50;0.63;;;7.60;99.90;;;;;;5055062;28;20027;-85
2024/02/25 04:37:05;;;;;;;1.08;0.70;;;7.50;99.90;;;;;;5054375;28;20091;-85
2024/02/25 04:39:30;;;;;;;0.68;0.68;;;7.60;99.90;;;;;;5038435;28;20465;-84
2024/02/25 04:41:56;;;;;;;0.65;0.65;;;7.60;99.90;;;;;;5022110;28;20055;-84
2024/02/25 04:44:25;;;;;;;1.35;0.75;;;7.60;99.90;;;;;;5027799;28;20025;-85
2024/02/25 04:46:51;;;;;;;1.55;0.93;;;7.70;99.90;;;;;;5077989;28;20029;-85
2024/02/25 04:49:17;;;;;;;0.88;0.80;;;7.70;99.90;;;;;;5061683;28;20013;-84
2024/02/25 04:51:45;;;;;;;1.02;0.80;;;7.60;99.90;;;;;;5062089;28;20013;-84
2024/02/25 04:54:15;;;;;;;0.70;0.70;;;7.60;99.90;;;;;;5031925;28;20037;-84
2024/02/25 04:56:44;;;;;;;0.63;0.60;;;7.60;99.90;;;;;;5056757;28;20056;-84
2024/02/25 04:59:11;;;;;;;1.17;0.60;;;7.60;99.90;;;;;;5005240;28;20055;-85
2024/02/25 05:01:55;;;;;;;1.08;0.68;;;7.60;99.90;;;;;;5037771;28;20025;-85
2024/02/25 05:04:20;;;;;;;0.85;0.80;;;7.60;99.90;;;;;;5054712;28;20043;-85
2024/02/25 05:06:46;;;;;;;0.75;0.75;;;7.60;99.90;;;;;;5037353;28;20469;-85
2024/02/25 05:09:12;;;;;;;0.60;0.60;;;7.50;99.90;;;;;;5004081;28;20485;-84
2024/02/25 05:11:37;;;;;;;2.05;0.60;;;7.60;99.90;;;;;;5037611;28;20457;-85
2024/02/25 05:14:04;;;;;;;1.00;0.70;;;7.50;99.90;;;;;;5036722;28;20052;-85
2024/02/25 05:16:29;;;;;;;0.95;0.60;;;7.50;99.90;;;;;;5054956;28;20064;-85
2024/02/25 05:18:55;;;;;;;1.60;0.50;;;7.60;99.90;;;;;;5036821;28;20381;-85
2024/02/25 05:21:21;;;;;;;0.68;0.68;;;7.50;99.90;;;;;;5053700;28;20025;-85
2024/02/25 05:23:49;;;;;;;1.33;0.90;;;7.50;99.90;;;;;;5020465;28;20025;-84
2024/02/25 05:26:15;;;;;;;0.50;0.50;;;7.50;99.90;;;;;;5004372;28;20021;-85
2024/02/25 05:28:41;;;;;;;0.60;0.55;;;7.50;99.90;;;;;;5036891;28;20412;-84
2024/02/25 05:31:07;;;;;;;0.85;0.70;;;7.50;99.90;;;;;;5036891;28;20039;-85
2024/02/25 05:33:32;;;;;;;1.15;0.70;;;7.50;99.90;;;;;;5003935;28;20025;-84
2024/02/25 05:35:58;;;;;;;1.42;1.00;;;7.50;99.90;;;;;;5020091;28;20112;-86
2024/02/25 05:38:24;;;;;;;1.10;0.70;;;7.50;99.90;;;;;;5003905;28;20033;-84
2024/02/25 05:40:49;;;;;;;0.45;0.45;;;7.50;99.90;;;;;;5020531;28;20112;-83
2024/02/25 05:43:15;;;;;;;0.82;0.60;;;7.60;99.90;;;;;;5036469;28;20465;-85
2024/02/25 05:45:41;;;;;;;0.80;0.80;;;7.50;99.90;;;;;;5054268;28;20191;-85
2024/02/25 05:48:07;;;;;;;1.13;0.73;;;7.50;99.90;;;;;;5053931;28;20116;-84
2024/02/25 05:50:33;;;;;;;1.10;0.98;;;7.50;99.90;;;;;;5036528;28;20064;-85
2024/02/25 05:52:58;;;;;;;0.80;0.80;;;7.50;99.90;;;;;;5019957;28;20033;-85
2024/02/25 05:55:24;;;;;;;1.35;0.80;;;7.60;99.90;;;;;;5036835;28;20061;-85
2024/02/25 05:57:53;;;;;;;1.10;0.88;;;7.60;99.90;;;;;;5036308;28;20400;-84
2024/02/25 06:00:19;;;;;;;0.60;0.60;;;7.50;99.90;;;;;;5036657;28;20029;-85
2024/02/25 06:02:47;;;;;;;1.08;0.88;;;7.60;99.90;;;;;;5035989;28;20128;-84
2024/02/25 06:05:16;;;;;;;1.08;0.80;;;7.60;99.90;;;;;;5036550;28;20123;-84
2024/02/25 06:07:42;;;;;;;0.70;0.70;;;7.60;99.90;;;;;;5020905;28;20082;-84
2024/02/25 06:10:08;;;;;;;2.70;1.75;;;7.60;99.90;;;;;;5059929;28;20040;-85
2024/02/25 06:12:38;;;;;;;1.67;0.90;;;7.60;99.90;;;;;;5077186;28;20013;-84
2024/02/25 06:15:05;;;;;;;1.75;0.82;;;7.60;99.90;;;;;;5060332;28;20455;-84
2024/02/25 06:17:30;;;;;;;1.73;1.05;;;7.60;99.90;;;;;;5080213;28;20123;-84
2024/02/25 06:19:56;;;;;;;1.95;0.90;;;7.60;99.90;;;;;;5050576;28;20040;-84
2024/02/25 06:22:22;;;;;;;1.30;0.98;;;7.60;99.90;;;;;;5007722;28;20368;-84
2024/02/25 06:24:47;;;;;;;0.80;0.80;;;7.60;99.90;;;;;;5023735;28;20017;-84
2024/02/25 06:27:17;;;;;;;1.40;1.05;;;7.60;99.90;;;;;;5040215;28;20191;-84
2024/02/25 06:29:43;;;;;;;1.10;1.00;;;7.60;99.90;;;;;;5040311;28;20108;-85
2024/02/25 06:32:08;;;;;;;1.15;1.05;;;7.60;99.90;;;;;;5040037;28;20056;-84
2024/02/25 06:34:37;;;;;;;1.23;1.13;;;7.50;99.90;;;;;;5023682;28;20063;-84
2024/02/25 06:37:03;;;;;;;1.10;1.00;;;7.60;99.90;;;;;;5039589;28;20029;-84
2024/02/25 06:39:29;;;;;;;1.20;1.10;;;7.60;99.90;;;;;;5024078;28;20098;-85
2024/02/25 06:41:54;;;;;;;1.10;0.98;;;7.60;99.90;;;;;;5056739;28;20074;-85
2024/02/25 06:44:20;;;;;;;1.20;1.00;;;7.50;99.90;;;;;;5057811;28;20081;-85
2024/02/25 06:46:46;;;;;;;1.55;1.00;;;7.60;99.90;;;;;;5058103;28;20055;-85
2024/02/25 06:49:11;;;;;;;1.15;1.05;;;7.60;99.90;;;;;;5040651;28;20337;-85
2024/02/25 06:51:37;;;;;;;1.00;1.00;;;7.60;99.90;;;;;;5061940;28;20025;-85
2024/02/25 06:54:03;;;;;;;1.10;1.00;;;7.60;99.90;;;;;;5031982;28;20033;-85
2024/02/25 06:56:31;;;;;;;2.08;1.10;;;7.60;99.90;;;;;;5016239;28;20025;-85
2024/02/25 06:59:00;;;;;;;1.40;1.30;;;7.60;99.90;;;;;;5053834;28;20067;-84
2024/02/25 07:01:25;;;;;;;1.33;1.23;;;7.60;99.90;;;;;;5041897;28;20033;-84
2024/02/25 07:03:51;;;;;;;1.48;1.38;;;7.60;99.90;;;;;;5056662;28;20043;-85
2024/02/25 07:06:16;;;;;;;1.45;1.35;;;7.70;99.90;;;;;;5023464;28;20032;-84
2024/02/25 07:08:42;;;;;;;2.00;1.40;;;7.60;99.90;;;;;;5039693;28;20532;-84
2024/02/25 07:11:19;;;;;;;1.65;1.50;;;7.70;99.90;;;;;;5057387;28;20098;-85
2024/02/25 07:13:45;;;;;;;2.25;1.70;;;7.60;99.90;;;;;;5038364;28;20044;-85
2024/02/25 07:16:12;;;;;;;1.77;1.33;;;7.70;99.90;;;;;;5055193;28;20076;-85
2024/02/25 07:18:37;;;;;;;1.55;1.45;;;7.70;99.90;;;;;;5056736;28;20035;-84
2024/02/25 07:21:03;;;;;;;1.77;1.67;;;7.70;99.90;;;;;;5022634;28;20451;-85
2024/02/25 07:23:30;;;;;;;1.65;1.55;;;7.70;99.90;;;;;;5023092;28;20021;-85
2024/02/25 07:25:55;;;;;;;1.95;1.50;;;7.60;99.90;;;;;;5038942;28;20116;-83
2024/02/25 07:28:21;;;;;;;2.42;1.67;;;7.60;99.90;;;;;;5055909;28;20108;-84
2024/02/25 07:30:46;;;;;;;1.95;1.77;;;7.70;99.90;;;;;;5023189;28;20040;-85
2024/02/25 07:33:12;;;;;;;1.83;1.63;;;7.70;99.90;;;;;;5056297;28;20029;-85
2024/02/25 07:35:38;;;;;;;2.33;2.10;;;7.70;99.90;;;;;;5061055;28;20044;-85
2024/02/25 07:38:03;;;;;;;1.70;1.60;;;7.70;99.90;;;;;;5046330;28;20081;-84
2024/02/25 07:40:33;;;;;;;2.08;1.50;;;7.70;99.90;;;;;;5047089;28;20055;-84
2024/02/25 07:42:58;;;;;;;2.55;1.60;;;7.70;99.90;;;;;;5080539;28;20080;-84
2024/02/25 07:45:24;;;;;;;1.88;1.60;;;7.70;99.90;;;;;;5038511;28;20129;-85
2024/02/25 07:47:50;;;;;;;2.30;1.60;;;7.80;99.90;;;;;;5007006;28;20037;-85
2024/02/25 07:50:16;;;;;;;1.70;1.60;;;7.80;99.90;;;;;;5055696;28;20531;-85
2024/02/25 07:52:44;;;;;;;1.70;1.60;;;7.80;99.90;;;;;;5039686;28;20029;-86
2024/02/25 07:55:10;;;;;;;1.95;1.42;;;7.80;99.90;;;;;;5006884;28;20061;-85
2024/02/25 07:57:36;;;;;;;2.20;1.88;;;7.80;99.90;;;;;;5022498;28;20057;-85
2024/02/25 08:00:09;;;;;;;2.78;1.75;;;7.80;99.90;;;;;;5038642;28;20033;-85
2024/02/25 08:02:35;;;;;;;2.38;1.60;;;7.90;99.90;;;;;;5039065;28;20380;-85
2024/02/25 08:05:02;;;;;;;2.33;2.00;;;7.80;99.90;;;;;;5055464;28;20067;-85
2024/02/25 08:07:32;;;;;;;2.42;2.03;;;7.80;99.90;;;;;;5022312;28;20063;-85
2024/02/25 08:09:58;;;;;;;2.58;1.70;;;7.90;99.90;;;;;;5022413;28;20105;-86
2024/02/25 08:12:24;;;;;;;1.88;1.77;;;7.90;99.90;;;;;;5022112;28;20477;-85
2024/02/25 08:14:54;;;;;;;4.78;2.20;;;7.90;99.90;;;;;;5056907;28;20084;-85
2024/02/25 08:17:22;;;;;;;2.47;2.00;;;7.90;99.90;;;;;;5056501;28;20128;-85
2024/02/25 08:19:48;;;;;;;2.95;2.10;;;7.90;99.90;;;;;;5055643;28;20029;-86
2024/02/25 08:22:14;;;;;;;3.80;2.42;;;7.90;99.90;;;;;;5037552;28;20040;-85
2024/02/25 08:24:40;;;;;;;3.55;2.30;;;7.90;99.90;;;;;;5021430;28;20118;-85
2024/02/25 08:27:06;;;;;;;2.58;2.17;;;7.90;99.90;;;;;;5037947;28;20486;-85
2024/02/25 08:29:31;;;;;;;1.98;1.83;;;7.90;99.90;;;;;;5054205;28;20037;-85
2024/02/25 08:31:58;;;;;;;4.93;1.90;;;7.90;99.90;;;;;;5021348;28;20040;-86
2024/02/25 08:34:24;;;;;;;1.63;1.52;;;7.90;99.90;;;;;;5055144;28;20020;-87
2024/02/25 08:36:50;;;;;;;1.90;1.60;;;7.90;99.90;;;;;;5021032;28;20021;-85
2024/02/25 08:39:17;;;;;;;1.40;1.30;;;7.80;99.90;;;;;;5053850;28;20108;-85
2024/02/25 08:41:43;;;;;;;1.92;1.83;;;7.80;99.90;;;;;;5021249;28;20456;-87
2024/02/25 08:44:11;;;;;;;1.60;1.50;;;7.80;99.90;;;;;;5021825;28;20031;-86
2024/02/25 08:46:37;;;;;;;2.03;1.50;;;7.70;99.90;;;;;;5038321;28;20037;-86
2024/02/25 08:49:02;;;;;;;1.85;1.50;;;7.70;99.90;;;;;;5038036;28;20029;-87
2024/02/25 08:51:28;;;;;;;2.25;1.73;;;7.80;99.90;;;;;;5038231;28;20028;-87
2024/02/25 08:53:54;;;;;;;2.85;1.95;;;7.80;99.90;;;;;;5055806;28;20028;-86
2024/02/25 08:56:19;;;;;;;3.28;2.03;;;7.80;99.90;;;;;;5021068;28;20021;-85
2024/02/25 08:58:45;;;;;;;2.65;2.08;;;7.90;99.90;;;;;;5038523;28;20481;-86
2024/02/25 09:01:14;;;;;;;2.35;1.85;;;7.90;99.90;;;;;;5022312;28;20028;-82
2024/02/25 09:03:40;;;;;;;2.63;2.00;;;7.90;99.90;;;;;;5050906;28;20021;-84
2024/02/25 09:06:05;;;;;;;2.80;2.33;;;8.00;99.90;;;;;;5061375;28;20068;-85
2024/02/25 09:08:31;;;;;;;2.15;2.00;;;8.00;99.90;;;;;;5061416;28;20037;-84
2024/02/25 09:10:57;;;;;;;2.55;1.85;;;8.00;99.90;;;;;;5077943;28;20029;-84
2024/02/25 09:13:22;;;;;;;2.90;2.42;;;8.00;99.90;;;;;;5025565;28;20488;-85
2024/02/25 09:16:17;;;;;;;3.85;2.17;;;8.00;99.90;;;;;;5006577;28;20484;-84
2024/02/25 09:18:43;;;;;;;2.88;2.00;;;8.10;99.90;;;;;;5041222;28;20044;-84
2024/02/25 09:21:11;;;;;;;3.00;2.00;;;8.10;99.90;;;;;;5037371;28;20021;-84
2024/02/25 09:23:36;;;;;;;2.30;2.10;;;8.10;99.90;;;;;;5053879;28;20068;-85
2024/02/25 09:26:07;;;;;;;3.25;2.00;;;8.10;99.90;;;;;;5005031;28;20033;-85
2024/02/25 09:28:33;;;;;;;2.10;1.83;;;8.10;99.90;;;;;;5054706;28;20032;-83
2024/02/25 09:30:59;;;;;;;2.03;1.83;;;8.20;99.90;;;;;;5021533;28;20079;-84
2024/02/25 09:33:29;;;;;;;3.42;2.10;;;8.20;99.90;;;;;;5038117;28;20032;-83
2024/02/25 09:35:58;;;;;;;2.20;1.47;;;8.20;99.90;;;;;;5059789;28;20041;-83
2024/02/25 09:38:45;;;;;;;2.65;1.67;;;8.20;99.90;;;;;;5063817;28;20363;-83
2024/02/25 09:41:10;;;;;;;1.88;1.60;;;8.30;99.90;;;;;;5066389;28;20431;-84
2024/02/25 09:43:36;;;;;;;2.35;1.80;;;8.30;99.90;;;;;;5012736;28;20110;-83
2024/02/25 09:46:03;;;;;;;2.85;2.00;;;8.40;99.90;;;;;;5054799;28;20028;-84
2024/02/25 09:48:29;;;;;;;1.90;1.80;;;8.40;99.90;;;;;;5037013;28;20036;-84
2024/02/25 09:50:55;;;;;;;2.95;1.95;;;8.40;99.90;;;;;;5037546;28;20029;-87
2024/02/25 09:53:24;;;;;;;2.13;1.58;;;8.40;99.90;;;;;;5055270;28;20120;-86
2024/02/25 09:55:50;;;;;;;1.58;1.25;;;8.40;99.90;;;;;;5037486;28;20039;-88
2024/02/25 09:58:19;;;;;;;2.05;1.50;;;8.40;99.90;;;;;;5037530;28;20120;-86
2024/02/25 10:00:46;;;;;;;1.60;1.40;;;8.40;99.90;;;;;;5020734;28;20025;-85
2024/02/25 10:03:13;;;;;;;1.85;1.30;;;8.40;99.90;;;;;;5036643;28;20039;-85
2024/02/25 10:05:40;;;;;;;0.90;0.90;;;8.40;99.90;;;;;;5020713;28;20171;-86
2024/02/25 10:08:10;;;;;;;3.58;1.65;;;8.50;99.90;;;;;;5053175;28;20124;-86
2024/02/25 10:10:37;;;;;;;1.40;1.30;;;8.50;99.90;;;;;;5053077;28;20120;-87
2024/02/25 10:13:04;;;;;;;1.88;1.67;;;8.50;99.90;;;;;;5053950;28;20025;-87
2024/02/25 10:15:30;;;;;;;2.38;1.60;;;8.50;99.90;;;;;;5054647;28;20057;-87
2024/02/25 10:17:56;;;;;;;1.77;1.60;;;8.50;99.90;;;;;;5020629;28;20025;-87
2024/02/25 10:20:22;;;;;;;2.63;1.88;;;8.60;99.90;;;;;;5020835;28;20029;-87
2024/02/25 10:23:04;;;;;;;2.75;1.90;;;8.70;99.90;;;;;;5054535;28;20021;-85
2024/02/25 10:25:29;;;;;;;6.28;2.35;;;8.70;99.90;;;;;;5054058;28;20051;-86
2024/02/25 10:28:14;;;;;;;2.97;2.50;;;8.70;99.90;;;;;;5038409;28;20493;-88
2024/02/25 10:30:56;;;;;;;2.45;2.25;;;8.70;99.90;;;;;;5062943;28;20025;-87
2024/02/25 10:33:25;;;;;;;3.63;2.30;;;8.80;99.90;;;;;;5060492;28;20021;-87
2024/02/25 10:35:52;;;;;;;2.63;2.20;;;8.80;99.90;;;;;;5076814;28;20039;-86
2024/02/25 10:38:21;;;;;;;2.55;2.28;;;8.80;99.90;;;;;;5077034;28;20025;-87
2024/02/25 10:40:47;;;;;;;5.70;2.40;;;8.90;99.90;;;;;;5061317;28;20021;-88
2024/02/25 10:43:14;;;;;;;4.15;2.25;;;8.90;99.90;;;;;;5054111;28;20025;-87
2024/02/25 10:45:45;;;;;;;3.83;2.45;;;8.90;99.90;;;;;;5053843;28;20064;-86
2024/02/25 10:48:13;;;;;;;3.60;2.83;;;9.00;99.90;;;;;;5054151;28;20025;-86
2024/02/25 10:50:40;;;;;;;3.05;2.75;;;8.90;99.90;;;;;;5053426;28;20021;-85
2024/02/25 10:53:10;;;;;;;2.95;2.65;;;9.00;99.90;;;;;;5037422;28;20021;-85
2024/02/25 10:55:40;;;;;;;4.38;3.03;;;9.00;99.90;;;;;;5053510;28;20112;-86
2024/02/25 10:58:14;;;;;;;3.83;2.70;;;9.00;99.90;;;;;;5054161;28;20032;-87
2024/02/25 11:00:40;;;;;;;4.05;2.85;;;9.10;99.90;;;;;;5054434;28;20021;-85
2024/02/25 11:03:07;;;;;;;4.10;3.00;;;9.20;99.90;;;;;;5021406;28;20032;-85
2024/02/25 11:05:33;;;;;;;3.72;2.70;;;9.20;99.90;;;;;;5057566;28;20461;-85
2024/02/25 11:08:02;;;;;;;4.78;3.20;;;9.20;99.90;;;;;;5040230;28;20029;-85
2024/02/25 11:10:37;;;;;;;4.47;3.22;;;9.20;99.90;;;;;;5056768;28;20031;-85
2024/02/25 11:13:11;;;;;;;3.47;3.05;;;9.20;99.90;;;;;;5040526;28;20056;-86
2024/02/25 11:15:37;;;;;;;4.10;2.83;;;9.20;99.90;;;;;;5040356;28;20409;-86
2024/02/25 11:18:05;;;;;;;4.30;3.00;;;9.20;99.90;;;;;;5040151;28;20043;-87
2024/02/25 11:20:34;;;;;;;5.03;2.90;;;9.30;99.90;;;;;;5023713;28;20055;-88
2024/02/25 11:23:00;;;;;;;4.53;3.08;;;9.20;99.90;;;;;;5056399;28;20032;-87
2024/02/25 11:25:39;;;;;;;4.70;2.97;;;9.20;99.90;;;;;;5056370;28;20021;-88
2024/02/25 11:28:13;;;;;;;3.83;3.00;;;9.20;99.90;;;;;;5038902;28;20099;-87
2024/02/25 11:30:43;;;;;;;4.07;2.83;;;9.20;99.90;;;;;;5023867;28;20380;-87
2024/02/25 11:33:33;;;;;;;3.53;3.10;;;9.20;99.90;;;;;;5039114;28;20109;-87
2024/02/25 11:36:05;;;;;;;4.00;3.28;;;9.20;99.90;;;;;;5047604;28;20064;-86
2024/02/25 11:38:30;;;;;;;4.90;3.47;;;9.20;99.90;;;;;;5040717;28;20451;-86
2024/02/25 11:41:00;;;;;;;4.25;3.08;;;9.30;99.90;;;;;;5022831;28;20065;-86
2024/02/25 11:43:25;;;;;;;2.80;2.50;;;9.30;99.90;;;;;;5022629;28;20033;-86
2024/02/25 11:45:51;;;;;;;3.65;3.10;;;9.40;99.90;;;;;;5022490;28;20381;-87
2024/02/25 11:48:17;;;;;;;5.05;2.97;;;9.40;99.90;;;;;;5056931;28;20029;-87
2024/02/25 11:50:43;;;;;;;5.55;3.13;;;9.40;99.90;;;;;;5057280;28;20138;-88
2024/02/25 11:53:09;;;;;;;4.20;3.00;;;9.40;99.90;;;;;;5040144;28;20025;-88
2024/02/25 11:55:35;;;;;;;3.58;3.28;;;9.40;99.90;;;;;;5057380;28;20354;-87
2024/02/25 11:58:01;;;;;;;3.83;2.75;;;9.40;99.90;;;;;;5061190;28;20379;-87
2024/02/25 12:00:29;;;;;;;3.88;2.97;;;9.40;99.90;;;;;;5059849;28;20032;-86
2024/02/25 12:02:56;;;;;;;3.38;2.42;;;9.50;99.90;;;;;;5062817;28;20033;-88
2024/02/25 12:05:21;;;;;;;3.65;2.72;;;9.50;99.90;;;;;;5074447;28;20030;-87
2024/02/25 12:07:57;;;;;;;2.88;2.50;;;9.50;99.90;;;;;;5013784;28;20025;-88
2024/02/25 12:10:24;;;;;;;4.32;2.55;;;9.60;99.90;;;;;;5039460;28;20392;-87
2024/02/25 12:12:53;;;;;;;3.35;2.55;;;9.60;99.90;;;;;;5040947;28;20036;-87
2024/02/25 12:15:19;;;;;;;4.38;2.67;;;9.70;99.90;;;;;;5039613;28;20053;-87
2024/02/25 12:17:46;;;;;;;4.20;2.33;;;9.70;99.90;;;;;;5057655;28;20526;-88
2024/02/25 12:20:13;;;;;;;3.70;2.80;;;9.80;99.90;;;;;;5066066;28;20119;-87
2024/02/25 12:22:39;;;;;;;2.50;1.85;;;9.80;99.90;;;;;;5071593;28;20056;-88
2024/02/25 12:25:06;;;;;;;1.50;1.33;;;9.80;99.90;;;;;;5073046;28;20017;-87
2024/02/25 12:27:32;;;;;;;2.95;1.00;;;9.80;99.90;;;;;;5056642;28;20465;-87
2024/02/25 12:30:00;;;;;;;1.70;0.90;;;9.80;99.90;;;;;;5037496;28;20033;-88
2024/02/25 12:32:26;;;;;;;1.88;0.70;;;9.80;99.90;;;;;;5071176;28;20055;-87
2024/02/25 12:34:52;;;;;;;1.17;0.68;;;9.90;99.90;;;;;;5049404;28;20029;-86
2024/02/25 12:37:21;;;;;;;1.58;0.80;;;9.80;99.90;;;;;;5010755;28;20033;-87
2024/02/25 12:39:48;;;;;;;2.83;1.33;;;9.90;99.90;;;;;;5039246;28;20032;-86
2024/02/25 12:42:17;;;;;;;1.40;1.02;;;9.90;99.90;;;;;;5054774;28;20029;-85
2024/02/25 12:44:43;;;;;;;1.33;1.08;;;10.00;99.90;;;;;;5021849;28;20083;-87
2024/02/25 12:47:10;;;;;;;1.98;1.10;;;10.00;99.90;;;;;;5038349;28;20033;-86
2024/02/25 12:49:39;;;;;;;2.03;1.30;;;10.10;99.90;;;;;;5054824;28;20047;-87
2024/02/25 12:52:05;;;;;;;1.38;0.88;;;10.10;99.90;;;;;;5021859;28;20116;-86
2024/02/25 12:54:31;;;;;;;2.15;1.00;;;10.10;99.90;;;;;;5005534;28;20060;-85
2024/02/25 12:57:04;;;;;;;1.80;0.82;;;10.20;99.90;;;;;;5021836;28;20116;-85